Time;durP1;ratioP1;P1;durP2;ratioP2;P2;SDS_P1;SDS_P2;PMS_P1;PMS_P2;Temp;Humidity;BMP_temperature;BMP_pressure;BME280_temperature;BME280_humidity;BME280_pressure;Samples;Min_cycle;Max_cycle;Signal;HPM_P1;HPM_P2
2022/10/13 10:54:40;;;;;;;46.05;35.03;;;;;;;;;;5095264;28;20374;-85
2022/10/13 10:57:09;;;;;;;67.68;43.85;;;;;;;;;;5095368;28;20031;-85
2022/10/13 10:59:41;;;;;;;54.42;35.22;;;;;;;;;;5093775;28;20291;-85
2022/10/13 11:02:07;;;;;;;57.70;36.63;;;;;;;;;;5094396;28;20481;-85
2022/10/13 11:04:44;;;;;;;47.28;34.55;;;;;;;;;;5094990;28;20421;-85
2022/10/13 11:07:11;;;;;;;47.45;35.00;;;;;;;;;;5094843;28;20020;-85
2022/10/13 11:09:43;;;;;;;48.50;35.58;;;;;;;;;;5095025;28;20024;-86
2022/10/13 11:12:18;;;;;;;47.88;35.00;;;;;;;;;;5094962;28;20032;-86
2022/10/13 11:15:04;;;;;;;48.72;37.08;;;;;;;;;;5095034;28;20020;-86
2022/10/13 11:17:30;;;;;;;55.83;38.03;;;;;;;;;;5032949;28;20034;-86
2022/10/13 11:19:57;;;;;;;54.10;40.28;;;;;;;;;;5032944;28;20474;-86
2022/10/13 11:22:27;;;;;;;45.45;33.13;;;;;;;;;;5032958;28;20145;-85
2022/10/13 11:24:55;;;;;;;48.85;34.67;;;;;;;;;;5016055;28;20045;-85
2022/10/13 11:27:26;;;;;;;48.40;34.45;;;;;;;;;;5032847;28;20025;-86
2022/10/13 11:29:53;;;;;;;42.63;33.88;;;;;;;;;;5032974;28;20097;-87
2022/10/13 11:32:26;;;;;;;46.97;32.85;;;;;;;;;;5016129;28;20439;-87
2022/10/13 11:34:59;;;;;;;37.58;29.08;;;;;;;;;;5015867;28;20485;-86
2022/10/13 11:37:29;;;;;;;36.97;27.98;;;;;;;;;;5016269;28;20366;-87
2022/10/13 11:40:30;;;;;;;40.78;26.48;;;;;;;;;;5032707;28;20371;-87
2022/10/13 11:42:56;;;;;;;36.83;26.02;;;;;;;;;;4973516;28;20038;-77
2022/10/13 11:45:34;;;;;;;34.03;26.67;;;;;;;;;;4972977;28;20046;-77
2022/10/13 11:48:03;;;;;;;41.95;25.08;;;;;;;;;;4973041;28;20337;-77
2022/10/13 11:50:32;;;;;;;31.10;21.50;;;;;;;;;;4972980;28;20325;-77
2022/10/13 11:53:15;;;;;;;36.55;24.67;;;;;;;;;;4972691;28;20057;-77
2022/10/13 11:55:49;;;;;;;31.45;24.20;;;;;;;;;;5048336;28;20113;-77
2022/10/13 11:58:19;;;;;;;30.83;22.55;;;;;;;;;;5051448;28;20036;-77
2022/10/13 12:01:00;;;;;;;27.48;21.83;;;;;;;;;;5051329;28;20108;-77
2022/10/13 12:03:32;;;;;;;32.33;23.90;;;;;;;;;;5051194;28;20099;-77
2022/10/13 12:06:00;;;;;;;33.33;23.60;;;;;;;;;;5037579;28;20033;-77
2022/10/13 12:08:27;;;;;;;31.70;24.13;;;;;;;;;;5038118;28;20040;-77
2022/10/13 12:10:56;;;;;;;37.78;23.17;;;;;;;;;;5037805;28;20038;-77
2022/10/13 12:13:24;;;;;;;31.42;23.38;;;;;;;;;;5021049;28;20411;-77
2022/10/13 12:15:58;;;;;;;33.47;25.05;;;;;;;;;;5039341;28;20022;-77
2022/10/13 12:18:35;;;;;;;30.20;23.63;;;;;;;;;;5059456;28;20025;-77
2022/10/13 12:21:19;;;;;;;36.47;24.27;;;;;;;;;;5059698;28;20029;-79
2022/10/13 12:23:45;;;;;;;30.77;24.55;;;;;;;;;;5049714;28;20033;-77
2022/10/13 12:26:19;;;;;;;37.83;23.10;;;;;;;;;;5056078;28;20029;-77
2022/10/13 12:28:45;;;;;;;28.13;21.98;;;;;;;;;;5048123;28;20033;-76
2022/10/13 12:31:17;;;;;;;28.95;20.95;;;;;;;;;;5055205;28;20068;-77
2022/10/13 12:33:43;;;;;;;34.42;22.88;;;;;;;;;;5059146;28;20266;-77
2022/10/13 12:36:31;;;;;;;37.50;23.67;;;;;;;;;;5053201;28;20026;-77
2022/10/13 12:39:02;;;;;;;29.95;24.65;;;;;;;;;;5059224;28;20029;-77
2022/10/13 12:41:31;;;;;;;36.72;22.98;;;;;;;;;;5059040;28;20063;-75
2022/10/13 12:43:57;;;;;;;34.72;23.30;;;;;;;;;;5058907;28;20430;-77
2022/10/13 12:46:35;;;;;;;35.45;22.42;;;;;;;;;;5061066;28;20037;-77
2022/10/13 12:49:05;;;;;;;26.60;21.83;;;;;;;;;;5038499;28;20419;-77
2022/10/13 12:51:34;;;;;;;30.40;22.80;;;;;;;;;;5038972;28;20300;-77
2022/10/13 12:54:05;;;;;;;29.13;22.58;;;;;;;;;;5038565;28;20450;-77
2022/10/13 12:56:31;;;;;;;32.63;24.23;;;;;;;;;;5039168;28;20101;-77
2022/10/13 12:58:58;;;;;;;34.17;23.63;;;;;;;;;;5038894;28;20394;-77
2022/10/13 13:01:30;;;;;;;28.60;23.55;;;;;;;;;;5038783;28;20018;-77
2022/10/13 13:04:01;;;;;;;30.88;22.35;;;;;;;;;;5038785;28;20032;-77
2022/10/13 13:06:31;;;;;;;32.90;23.50;;;;;;;;;;5038682;28;20110;-77
2022/10/13 13:09:07;;;;;;;35.38;23.95;;;;;;;;;;5037490;28;20347;-77
2022/10/13 13:11:34;;;;;;;32.63;24.33;;;;;;;;;;5038535;28;20104;-77
2022/10/13 13:14:19;;;;;;;29.48;23.05;;;;;;;;;;5038458;28;20029;-78
2022/10/13 13:17:01;;;;;;;26.10;20.83;;;;;;;;;;5037521;28;20064;-78
2022/10/13 13:19:40;;;;;;;27.27;21.98;;;;;;;;;;5038185;28;20104;-77
2022/10/13 13:22:06;;;;;;;36.05;24.52;;;;;;;;;;5038462;28;20045;-78
2022/10/13 13:24:33;;;;;;;35.35;21.95;;;;;;;;;;5038507;28;20022;-78
2022/10/13 13:26:59;;;;;;;34.28;22.40;;;;;;;;;;5038239;28;20327;-77
2022/10/13 13:29:25;;;;;;;37.53;27.13;;;;;;;;;;5038268;28;20029;-77
2022/10/13 13:31:51;;;;;;;25.85;20.45;;;;;;;;;;5038329;28;20033;-77
2022/10/13 13:34:17;;;;;;;25.52;21.52;;;;;;;;;;5037811;28;20029;-77
2022/10/13 13:36:43;;;;;;;27.08;21.40;;;;;;;;;;5038147;28;20025;-78
2022/10/13 13:39:15;;;;;;;31.70;21.52;;;;;;;;;;5038015;28;20048;-78
2022/10/13 13:41:41;;;;;;;28.30;19.75;;;;;;;;;;5038171;28;20303;-77
2022/10/13 13:44:09;;;;;;;29.38;21.88;;;;;;;;;;5036259;28;20084;-77
2022/10/13 13:46:35;;;;;;;26.13;20.02;;;;;;;;;;5037455;28;20147;-77
2022/10/13 13:49:02;;;;;;;31.50;19.58;;;;;;;;;;5037705;28;20104;-78
2022/10/13 13:51:28;;;;;;;29.13;18.65;;;;;;;;;;5037321;28;20033;-77
2022/10/13 13:53:54;;;;;;;30.88;20.98;;;;;;;;;;5037381;28;20095;-78
2022/10/13 13:56:20;;;;;;;30.23;17.88;;;;;;;;;;5037739;28;20064;-78
2022/10/13 13:58:47;;;;;;;26.23;18.88;;;;;;;;;;5037603;28;20028;-77
2022/10/13 14:01:13;;;;;;;23.67;17.17;;;;;;;;;;5037621;28;20362;-77
2022/10/13 14:03:39;;;;;;;24.17;18.25;;;;;;;;;;5035862;28;20033;-77
2022/10/13 14:06:08;;;;;;;30.42;18.40;;;;;;;;;;5035740;28;20339;-77
2022/10/13 14:08:40;;;;;;;29.23;18.35;;;;;;;;;;5037830;28;20076;-77
2022/10/13 14:11:06;;;;;;;25.15;17.92;;;;;;;;;;5037407;28;20037;-77
2022/10/13 14:13:33;;;;;;;28.52;18.40;;;;;;;;;;5037377;28;20033;-77
2022/10/13 14:15:59;;;;;;;22.67;17.45;;;;;;;;;;5035655;28;20036;-78
2022/10/13 14:18:25;;;;;;;33.10;20.40;;;;;;;;;;5037276;28;20025;-78
2022/10/13 14:20:52;;;;;;;27.88;19.80;;;;;;;;;;5037346;28;20021;-77
2022/10/13 14:23:18;;;;;;;34.85;20.40;;;;;;;;;;5037355;28;20041;-77
2022/10/13 14:25:44;;;;;;;30.63;19.52;;;;;;;;;;5037306;28;20049;-78
2022/10/13 14:28:10;;;;;;;29.05;19.52;;;;;;;;;;5036877;28;20391;-78
2022/10/13 14:30:40;;;;;;;34.85;20.60;;;;;;;;;;5036875;28;20034;-77
2022/10/13 14:33:07;;;;;;;43.63;23.70;;;;;;;;;;5037021;28;20025;-78
2022/10/13 14:35:33;;;;;;;30.35;20.83;;;;;;;;;;5036979;28;20029;-78
2022/10/13 14:37:59;;;;;;;32.58;21.45;;;;;;;;;;5037288;28;20030;-77
2022/10/13 14:40:25;;;;;;;32.38;21.63;;;;;;;;;;5037062;28;20498;-78
2022/10/13 14:42:51;;;;;;;32.30;20.60;;;;;;;;;;5036959;28;20121;-77
2022/10/13 14:45:21;;;;;;;32.45;20.35;;;;;;;;;;5037008;28;20120;-78
2022/10/13 14:47:47;;;;;;;30.30;21.02;;;;;;;;;;5036897;28;20403;-78
2022/10/13 14:50:13;;;;;;;30.30;21.17;;;;;;;;;;5036921;28;20036;-78
2022/10/13 14:52:39;;;;;;;33.13;21.15;;;;;;;;;;5036525;28;20049;-77
2022/10/13 14:55:06;;;;;;;38.15;21.88;;;;;;;;;;5036849;28;20028;-77
2022/10/13 14:57:32;;;;;;;31.38;19.15;;;;;;;;;;5035737;28;20017;-77
2022/10/13 14:59:58;;;;;;;35.50;20.65;;;;;;;;;;5035509;28;20033;-77
2022/10/13 15:02:24;;;;;;;32.08;21.27;;;;;;;;;;5036791;28;20025;-77
2022/10/13 15:04:52;;;;;;;29.30;19.73;;;;;;;;;;5036951;28;20044;-77
2022/10/13 15:07:19;;;;;;;29.73;18.17;;;;;;;;;;5036922;28;20140;-77
2022/10/13 15:09:45;;;;;;;31.88;18.98;;;;;;;;;;5036740;28;20025;-78
2022/10/13 15:12:13;;;;;;;29.45;19.65;;;;;;;;;;5037110;28;20104;-78
2022/10/13 15:14:39;;;;;;;25.50;19.20;;;;;;;;;;5036830;28;20030;-77
2022/10/13 15:17:05;;;;;;;27.77;19.70;;;;;;;;;;5036649;28;20032;-78
2022/10/13 15:19:31;;;;;;;27.35;19.80;;;;;;;;;;5034967;28;20029;-78
2022/10/13 15:21:57;;;;;;;32.42;19.98;;;;;;;;;;5035526;28;20021;-78
2022/10/13 15:24:23;;;;;;;27.98;20.90;;;;;;;;;;5036533;28;20411;-77
2022/10/13 15:26:49;;;;;;;46.20;24.35;;;;;;;;;;5036541;28;20032;-78
2022/10/13 15:29:17;;;;;;;60.35;30.13;;;;;;;;;;5036533;28;20030;-77
2022/10/13 15:31:43;;;;;;;150.88;46.50;;;;;;;;;;5036570;28;20299;-78
2022/10/13 15:34:09;;;;;;;114.60;46.00;;;;;;;;;;5035621;28;20575;-78
2022/10/13 15:36:35;;;;;;;88.15;34.30;;;;;;;;;;5036658;28;20048;-78
2022/10/13 15:39:01;;;;;;;64.75;29.92;;;;;;;;;;5035063;28;20076;-78
2022/10/13 15:41:27;;;;;;;50.65;28.38;;;;;;;;;;5039307;28;20025;-78
2022/10/13 15:43:53;;;;;;;94.05;32.85;;;;;;;;;;5040291;28;20037;-78
2022/10/13 15:46:20;;;;;;;97.68;34.88;;;;;;;;;;5040163;28;20033;-78
2022/10/13 15:48:47;;;;;;;90.38;33.92;;;;;;;;;;5041497;28;20437;-78
2022/10/13 15:51:18;;;;;;;59.15;28.38;;;;;;;;;;5060142;28;20032;-78
2022/10/13 15:53:44;;;;;;;43.15;27.23;;;;;;;;;;5059030;28;20049;-72
2022/10/13 15:56:10;;;;;;;39.35;25.27;;;;;;;;;;5077752;28;20023;-73
2022/10/13 15:58:36;;;;;;;50.65;27.02;;;;;;;;;;5078544;28;20334;-72
2022/10/13 16:01:06;;;;;;;45.28;25.58;;;;;;;;;;5060072;28;20418;-73
2022/10/13 16:03:32;;;;;;;47.45;26.92;;;;;;;;;;5059246;28;20025;-76
2022/10/13 16:06:04;;;;;;;45.72;25.98;;;;;;;;;;5060002;28;20108;-75
2022/10/13 16:08:30;;;;;;;40.72;24.02;;;;;;;;;;5060033;28;20035;-73
2022/10/13 16:10:56;;;;;;;39.80;24.92;;;;;;;;;;5044942;28;20056;-79
2022/10/13 16:13:22;;;;;;;37.22;24.55;;;;;;;;;;5058071;28;20144;-79
2022/10/13 16:15:58;;;;;;;38.00;24.23;;;;;;;;;;5058040;28;20029;-79
2022/10/13 16:18:28;;;;;;;36.83;24.70;;;;;;;;;;5059421;28;20032;-79
2022/10/13 16:20:54;;;;;;;45.17;24.05;;;;;;;;;;5058204;28;20024;-79
2022/10/13 16:23:20;;;;;;;41.80;25.20;;;;;;;;;;5059472;28;20036;-79
2022/10/13 16:25:46;;;;;;;35.88;24.67;;;;;;;;;;5059470;28;20025;-78
2022/10/13 16:28:13;;;;;;;40.17;25.58;;;;;;;;;;5059338;28;20025;-79
2022/10/13 16:30:39;;;;;;;43.17;23.73;;;;;;;;;;5041518;28;20048;-79
2022/10/13 16:33:05;;;;;;;44.72;27.40;;;;;;;;;;5059207;28;20120;-80
2022/10/13 16:35:33;;;;;;;44.42;27.33;;;;;;;;;;5059123;28;20380;-79
2022/10/13 16:38:01;;;;;;;47.85;26.65;;;;;;;;;;5059454;28;20032;-79
2022/10/13 16:40:27;;;;;;;46.42;27.83;;;;;;;;;;5058141;28;20031;-79
2022/10/13 16:42:53;;;;;;;44.20;27.75;;;;;;;;;;5057233;28;20154;-79
2022/10/13 16:45:19;;;;;;;42.50;27.98;;;;;;;;;;5058764;28;20062;-80
2022/10/13 16:47:49;;;;;;;41.42;27.95;;;;;;;;;;5057869;28;20427;-79
2022/10/13 16:50:16;;;;;;;43.05;28.33;;;;;;;;;;5052219;28;20043;-79
2022/10/13 16:52:42;;;;;;;40.83;27.75;;;;;;;;;;5058393;28;20052;-79
2022/10/13 16:55:08;;;;;;;41.50;28.35;;;;;;;;;;5058975;28;20139;-79
2022/10/13 16:57:34;;;;;;;41.33;27.85;;;;;;;;;;5058727;28;20340;-79
2022/10/13 17:00:00;;;;;;;37.53;28.73;;;;;;;;;;5058738;28;20044;-79
2022/10/13 17:02:26;;;;;;;46.28;28.95;;;;;;;;;;5057725;28;20013;-79
2022/10/13 17:04:52;;;;;;;47.25;31.17;;;;;;;;;;5056892;28;20025;-79
2022/10/13 17:07:20;;;;;;;44.40;32.58;;;;;;;;;;5058750;28;20382;-79
2022/10/13 17:09:46;;;;;;;48.63;32.90;;;;;;;;;;5058619;28;20437;-79
2022/10/13 17:12:12;;;;;;;49.35;34.65;;;;;;;;;;5058466;28;20070;-79
2022/10/13 17:14:38;;;;;;;58.90;35.72;;;;;;;;;;5057338;28;20029;-79
2022/10/13 17:17:04;;;;;;;49.78;32.50;;;;;;;;;;5056811;28;20346;-78
2022/10/13 17:19:30;;;;;;;43.55;31.50;;;;;;;;;;5058383;28;20311;-79
2022/10/13 17:21:57;;;;;;;45.63;30.02;;;;;;;;;;5058335;28;20410;-79
2022/10/13 17:24:23;;;;;;;47.80;29.70;;;;;;;;;;5058346;28;20033;-79
2022/10/13 17:26:49;;;;;;;38.63;29.58;;;;;;;;;;5058181;28;20079;-78
2022/10/13 17:29:16;;;;;;;40.33;29.25;;;;;;;;;;5057699;28;20029;-78
2022/10/13 17:31:42;;;;;;;37.40;28.85;;;;;;;;;;5057960;28;20025;-78
2022/10/13 17:34:08;;;;;;;43.45;32.40;;;;;;;;;;5057455;28;20029;-78
2022/10/13 17:36:34;;;;;;;43.88;31.52;;;;;;;;;;5058247;28;20147;-78
2022/10/13 17:39:05;;;;;;;44.17;31.10;;;;;;;;;;5057827;28;20025;-78
2022/10/13 17:41:31;;;;;;;37.22;30.10;;;;;;;;;;5058097;28;20032;-78
2022/10/13 17:43:57;;;;;;;36.97;29.67;;;;;;;;;;5040055;28;20055;-78
2022/10/13 17:46:24;;;;;;;44.75;30.90;;;;;;;;;;5040391;28;20029;-78
2022/10/13 17:48:50;;;;;;;43.03;32.95;;;;;;;;;;5040089;28;20087;-78
2022/10/13 17:51:19;;;;;;;74.70;49.40;;;;;;;;;;5057401;28;20318;-78
2022/10/13 17:53:45;;;;;;;76.40;49.20;;;;;;;;;;5057484;28;20095;-78
2022/10/13 17:56:12;;;;;;;75.60;45.47;;;;;;;;;;5057812;28;20025;-78
2022/10/13 17:58:39;;;;;;;61.42;43.35;;;;;;;;;;5057635;28;20029;-79
2022/10/13 18:01:09;;;;;;;89.40;54.50;;;;;;;;;;5057589;28;20025;-79
2022/10/13 18:03:36;;;;;;;114.15;66.93;;;;;;;;;;5057043;28;20052;-79
2022/10/13 18:06:02;;;;;;;123.20;74.20;;;;;;;;;;5039820;28;20040;-79
2022/10/13 18:08:28;;;;;;;97.88;61.92;;;;;;;;;;5057308;28;20489;-77
2022/10/13 18:10:54;;;;;;;90.75;59.45;;;;;;;;;;5057433;28;20119;-79
2022/10/13 18:13:20;;;;;;;88.03;57.42;;;;;;;;;;5039479;28;20159;-79
2022/10/13 18:15:46;;;;;;;78.63;51.97;;;;;;;;;;5057501;28;20318;-79
2022/10/13 18:18:12;;;;;;;71.00;45.55;;;;;;;;;;5057431;28;20025;-79
2022/10/13 18:20:38;;;;;;;69.35;43.03;;;;;;;;;;5057252;28;20045;-77
2022/10/13 18:23:04;;;;;;;56.53;40.10;;;;;;;;;;5057567;28;20037;-78
2022/10/13 18:25:34;;;;;;;62.08;42.05;;;;;;;;;;5057278;28;20314;-78
2022/10/13 18:28:00;;;;;;;61.08;39.25;;;;;;;;;;5039444;28;20033;-78
2022/10/13 18:30:26;;;;;;;60.67;38.50;;;;;;;;;;5039494;28;20087;-78
2022/10/13 18:32:52;;;;;;;54.38;35.60;;;;;;;;;;5039433;28;20033;-78
2022/10/13 18:35:18;;;;;;;48.63;36.22;;;;;;;;;;5056977;28;20399;-77
2022/10/13 18:37:48;;;;;;;59.58;39.45;;;;;;;;;;5056443;28;20025;-77
2022/10/13 18:40:14;;;;;;;57.22;39.30;;;;;;;;;;5056099;28;20021;-78
2022/10/13 18:42:40;;;;;;;49.10;36.70;;;;;;;;;;5022888;28;20074;-77
2022/10/13 18:45:06;;;;;;;54.45;37.15;;;;;;;;;;5038947;28;20053;-78
2022/10/13 18:47:32;;;;;;;46.13;35.15;;;;;;;;;;5057027;28;20021;-78
2022/10/13 18:49:59;;;;;;;48.10;35.58;;;;;;;;;;5056979;28;20031;-78
2022/10/13 18:52:25;;;;;;;49.67;35.15;;;;;;;;;;5056526;28;20053;-77
2022/10/13 18:54:53;;;;;;;47.85;34.35;;;;;;;;;;5056812;28;20028;-77
2022/10/13 18:57:19;;;;;;;54.58;35.50;;;;;;;;;;5056934;28;20114;-78
2022/10/13 18:59:45;;;;;;;50.80;37.60;;;;;;;;;;5056557;28;20025;-78
2022/10/13 19:02:13;;;;;;;58.38;38.40;;;;;;;;;;5038951;28;20331;-78
2022/10/13 19:04:39;;;;;;;60.40;42.15;;;;;;;;;;5056813;28;20025;-78
2022/10/13 19:07:05;;;;;;;57.05;41.95;;;;;;;;;;5039242;28;20036;-77
2022/10/13 19:09:31;;;;;;;56.88;43.67;;;;;;;;;;5039145;28;20059;-78
2022/10/13 19:11:57;;;;;;;59.88;43.17;;;;;;;;;;5056579;28;20031;-78
2022/10/13 19:14:23;;;;;;;69.05;45.65;;;;;;;;;;5057689;28;20029;-77
2022/10/13 19:16:49;;;;;;;55.70;41.60;;;;;;;;;;5043030;28;20091;-77
2022/10/13 19:19:15;;;;;;;68.10;51.33;;;;;;;;;;5043035;28;20032;-78
2022/10/13 19:21:41;;;;;;;75.75;55.60;;;;;;;;;;5060622;28;20059;-77
2022/10/13 19:24:08;;;;;;;72.32;51.45;;;;;;;;;;5060716;28;20071;-78
2022/10/13 19:26:35;;;;;;;72.18;48.80;;;;;;;;;;5060450;28;20025;-77
2022/10/13 19:29:05;;;;;;;57.40;45.78;;;;;;;;;;5060475;28;20155;-77
2022/10/13 19:31:32;;;;;;;61.95;44.25;;;;;;;;;;5060707;28;20036;-77
2022/10/13 19:33:59;;;;;;;52.90;41.58;;;;;;;;;;5060341;28;20021;-77
2022/10/13 19:36:33;;;;;;;54.72;40.30;;;;;;;;;;5042653;28;20068;-77
2022/10/13 19:39:00;;;;;;;55.55;39.28;;;;;;;;;;5060548;28;20013;-78
2022/10/13 19:41:28;;;;;;;60.30;40.28;;;;;;;;;;5060116;28;20029;-77
2022/10/13 19:43:54;;;;;;;47.92;36.65;;;;;;;;;;5057404;28;20021;-77
2022/10/13 19:46:20;;;;;;;49.42;36.78;;;;;;;;;;5059629;28;20028;-77
2022/10/13 19:48:46;;;;;;;49.88;36.15;;;;;;;;;;5059961;28;20035;-77
2022/10/13 19:51:13;;;;;;;48.90;35.40;;;;;;;;;;5060264;28;20029;-76
2022/10/13 19:53:39;;;;;;;51.47;33.55;;;;;;;;;;5058741;28;20071;-75
2022/10/13 19:56:06;;;;;;;46.28;32.97;;;;;;;;;;5058909;28;20112;-76
2022/10/13 19:58:32;;;;;;;45.72;31.77;;;;;;;;;;5069326;28;20032;-77
2022/10/13 20:01:02;;;;;;;39.97;30.38;;;;;;;;;;5063189;28;20062;-77
2022/10/13 20:03:28;;;;;;;38.00;28.58;;;;;;;;;;5079889;28;20051;-76
2022/10/13 20:05:54;;;;;;;40.78;28.63;;;;;;;;;;5079786;28;20064;-76
2022/10/13 20:08:20;;;;;;;47.63;29.20;;;;;;;;;;5062990;28;20108;-76
2022/10/13 20:10:46;;;;;;;43.53;29.58;;;;;;;;;;5079864;28;20403;-77
2022/10/13 20:13:12;;;;;;;43.72;29.02;;;;;;;;;;5071070;28;20449;-77
2022/10/13 20:15:39;;;;;;;42.17;29.95;;;;;;;;;;5059932;28;20055;-77
2022/10/13 20:18:07;;;;;;;41.70;28.33;;;;;;;;;;5060141;28;20025;-77
2022/10/13 20:20:34;;;;;;;38.08;27.77;;;;;;;;;;5041885;28;20422;-77
2022/10/13 20:23:00;;;;;;;37.90;27.80;;;;;;;;;;5059469;28;20044;-77
2022/10/13 20:25:26;;;;;;;38.80;29.50;;;;;;;;;;5041000;28;20071;-76
2022/10/13 20:27:52;;;;;;;43.92;29.90;;;;;;;;;;5059012;28;20029;-76
2022/10/13 20:30:18;;;;;;;44.85;29.67;;;;;;;;;;5059007;28;20025;-76
2022/10/13 20:32:44;;;;;;;37.13;29.10;;;;;;;;;;5058600;28;20060;-76
2022/10/13 20:35:10;;;;;;;42.33;28.20;;;;;;;;;;5071090;28;20028;-77
2022/10/13 20:37:36;;;;;;;42.25;29.25;;;;;;;;;;5047277;28;20028;-76
2022/10/13 20:40:03;;;;;;;44.97;29.25;;;;;;;;;;5064575;28;20017;-76
2022/10/13 20:42:29;;;;;;;41.17;29.05;;;;;;;;;;5073297;28;20090;-76
2022/10/13 20:44:55;;;;;;;40.33;29.25;;;;;;;;;;5059110;28;20411;-76
2022/10/13 20:47:21;;;;;;;39.25;28.52;;;;;;;;;;5058408;28;20039;-77
2022/10/13 20:49:47;;;;;;;38.95;30.33;;;;;;;;;;5058518;28;20028;-77
2022/10/13 20:52:13;;;;;;;38.85;27.30;;;;;;;;;;5058106;28;20438;-77
2022/10/13 20:54:39;;;;;;;38.22;27.15;;;;;;;;;;5067818;28;20035;-76
2022/10/13 20:57:05;;;;;;;37.80;27.50;;;;;;;;;;5065998;28;20036;-76
2022/10/13 20:59:31;;;;;;;36.00;26.23;;;;;;;;;;5058721;28;20104;-76
2022/10/13 21:01:57;;;;;;;33.42;25.42;;;;;;;;;;5057867;28;20017;-77
2022/10/13 21:04:23;;;;;;;34.00;25.17;;;;;;;;;;5041641;28;20048;-77
2022/10/13 21:06:49;;;;;;;29.48;24.20;;;;;;;;;;5058302;28;20025;-77
2022/10/13 21:09:15;;;;;;;35.60;24.45;;;;;;;;;;5058519;28;20024;-77
2022/10/13 21:11:41;;;;;;;34.28;25.55;;;;;;;;;;5058270;28;20031;-77
2022/10/13 21:14:08;;;;;;;37.20;24.52;;;;;;;;;;5048791;28;20341;-77
2022/10/13 21:16:34;;;;;;;34.03;24.20;;;;;;;;;;5058168;28;20354;-78
2022/10/13 21:19:01;;;;;;;34.53;25.25;;;;;;;;;;5057454;28;20021;-77
2022/10/13 21:21:28;;;;;;;34.42;25.08;;;;;;;;;;5058030;28;20406;-77
2022/10/13 21:23:57;;;;;;;33.83;23.70;;;;;;;;;;5057794;28;20350;-77
2022/10/13 21:26:25;;;;;;;29.52;23.55;;;;;;;;;;5056690;28;20068;-77
2022/10/13 21:28:51;;;;;;;30.25;22.80;;;;;;;;;;5056772;28;20124;-77
2022/10/13 21:31:18;;;;;;;32.15;23.17;;;;;;;;;;5057616;28;20035;-77
2022/10/13 21:33:44;;;;;;;30.73;22.27;;;;;;;;;;5058351;28;20055;-77
2022/10/13 21:36:13;;;;;;;30.88;21.45;;;;;;;;;;5057807;28;20029;-77
2022/10/13 21:38:39;;;;;;;32.92;22.13;;;;;;;;;;5054196;28;20041;-77
2022/10/13 21:41:06;;;;;;;30.58;22.00;;;;;;;;;;5056583;28;20029;-77
2022/10/13 21:43:33;;;;;;;33.95;22.20;;;;;;;;;;5057538;28;20051;-77
2022/10/13 21:46:08;;;;;;;32.65;22.25;;;;;;;;;;5057713;28;20070;-78
2022/10/13 21:48:34;;;;;;;33.83;22.13;;;;;;;;;;5040365;28;20403;-77
2022/10/13 21:51:00;;;;;;;32.80;22.92;;;;;;;;;;5057255;28;20028;-77
2022/10/13 21:53:26;;;;;;;31.27;22.70;;;;;;;;;;5057012;28;20055;-78
2022/10/13 21:55:52;;;;;;;35.88;23.55;;;;;;;;;;5057022;28;20027;-77
2022/10/13 21:58:18;;;;;;;37.33;23.27;;;;;;;;;;5057164;28;20318;-77
2022/10/13 22:00:44;;;;;;;34.47;23.63;;;;;;;;;;5058364;28;20035;-77
2022/10/13 22:03:10;;;;;;;39.60;25.65;;;;;;;;;;5077780;28;20111;-77
2022/10/13 22:05:36;;;;;;;39.05;26.17;;;;;;;;;;5067389;28;20029;-77
2022/10/13 22:08:02;;;;;;;40.42;23.98;;;;;;;;;;5057421;28;20079;-77
2022/10/13 22:10:28;;;;;;;31.80;21.77;;;;;;;;;;5057261;28;20047;-77
2022/10/13 22:12:56;;;;;;;30.35;22.75;;;;;;;;;;5056653;28;20021;-76
2022/10/13 22:15:22;;;;;;;30.10;22.65;;;;;;;;;;5057139;28;20039;-76
2022/10/13 22:17:48;;;;;;;30.73;22.17;;;;;;;;;;5056883;28;20029;-76
2022/10/13 22:20:14;;;;;;;30.35;22.60;;;;;;;;;;5057242;28;20486;-76
2022/10/13 22:22:40;;;;;;;33.35;23.15;;;;;;;;;;5040206;28;20141;-77
2022/10/13 22:25:06;;;;;;;29.13;23.60;;;;;;;;;;5057295;28;20129;-76
2022/10/13 22:27:32;;;;;;;34.15;24.05;;;;;;;;;;5056733;28;20040;-76
2022/10/13 22:29:58;;;;;;;32.55;24.52;;;;;;;;;;5057469;28;20021;-76
2022/10/13 22:32:25;;;;;;;37.08;25.55;;;;;;;;;;5056726;28;20033;-76
2022/10/13 22:34:50;;;;;;;35.97;24.38;;;;;;;;;;5057108;28;20029;-76
2022/10/13 22:37:17;;;;;;;34.30;25.73;;;;;;;;;;5038926;28;20059;-76
2022/10/13 22:39:43;;;;;;;36.15;26.33;;;;;;;;;;5038990;28;20075;-76
2022/10/13 22:42:09;;;;;;;37.83;26.60;;;;;;;;;;5045519;28;20033;-76
2022/10/13 22:44:35;;;;;;;37.58;28.00;;;;;;;;;;5056659;28;20059;-76
2022/10/13 22:47:01;;;;;;;40.15;28.10;;;;;;;;;;5056813;28;20033;-77
2022/10/13 22:49:27;;;;;;;40.88;28.85;;;;;;;;;;5039723;28;20074;-77
2022/10/13 22:51:53;;;;;;;43.05;31.30;;;;;;;;;;5046097;28;20442;-76
2022/10/13 22:54:19;;;;;;;37.45;29.33;;;;;;;;;;5055961;28;20045;-76
2022/10/13 22:56:45;;;;;;;38.08;28.92;;;;;;;;;;5056551;28;20032;-76
2022/10/13 22:59:12;;;;;;;42.65;28.83;;;;;;;;;;5056620;28;20036;-76
2022/10/13 23:01:38;;;;;;;40.95;29.55;;;;;;;;;;5056281;28;20060;-76
2022/10/13 23:04:05;;;;;;;36.85;28.38;;;;;;;;;;5056874;28;20083;-77
2022/10/13 23:06:32;;;;;;;36.60;28.98;;;;;;;;;;5056122;28;20112;-77
2022/10/13 23:09:02;;;;;;;39.30;28.15;;;;;;;;;;5056504;28;20116;-77
2022/10/13 23:11:28;;;;;;;37.72;28.23;;;;;;;;;;5056294;28;20033;-77
2022/10/13 23:13:54;;;;;;;39.58;28.98;;;;;;;;;;5056413;28;20021;-76
2022/10/13 23:16:24;;;;;;;36.40;28.27;;;;;;;;;;5056525;28;20112;-76
2022/10/13 23:18:50;;;;;;;36.88;29.20;;;;;;;;;;5056449;28;20025;-77
2022/10/13 23:21:35;;;;;;;35.88;27.13;;;;;;;;;;5039533;28;20065;-77
2022/10/13 23:24:02;;;;;;;39.38;27.30;;;;;;;;;;5055628;28;20025;-76
2022/10/13 23:26:28;;;;;;;37.78;27.88;;;;;;;;;;5056246;28;20029;-77
2022/10/13 23:28:55;;;;;;;36.88;26.58;;;;;;;;;;5056197;28;20326;-76
2022/10/13 23:31:21;;;;;;;34.35;27.45;;;;;;;;;;5056361;28;20033;-77
2022/10/13 23:33:47;;;;;;;37.47;26.17;;;;;;;;;;5053837;28;20127;-77
2022/10/13 23:36:15;;;;;;;37.38;26.70;;;;;;;;;;5056208;28;20091;-77
2022/10/13 23:38:43;;;;;;;38.92;25.77;;;;;;;;;;5056325;28;20075;-76
2022/10/13 23:41:11;;;;;;;35.90;26.67;;;;;;;;;;5055952;28;20045;-77
2022/10/13 23:43:37;;;;;;;32.90;25.00;;;;;;;;;;5055048;28;20112;-77
2022/10/13 23:46:03;;;;;;;34.92;25.92;;;;;;;;;;5056118;28;20059;-77
2022/10/13 23:48:29;;;;;;;37.60;24.85;;;;;;;;;;5056390;28;20075;-77
2022/10/13 23:50:55;;;;;;;28.63;23.98;;;;;;;;;;5055693;28;20037;-76
2022/10/13 23:53:21;;;;;;;30.52;23.55;;;;;;;;;;5055988;28;20423;-76
2022/10/13 23:55:47;;;;;;;32.67;24.83;;;;;;;;;;5055839;28;20036;-76
2022/10/13 23:58:13;;;;;;;30.60;22.60;;;;;;;;;;5056320;28;20017;-76
